createdAt,value
2023-04-15T00:00:05.011Z,51.85
2023-04-15T00:01:06.806Z,49.65
2023-04-15T00:02:19.011Z,54.47
2023-04-15T00:03:20.857Z,48.53
2023-04-15T00:04:22.612Z,48.95
2023-04-15T00:05:24.134Z,50.03
2023-04-15T00:06:26.256Z,52.33
2023-04-15T00:07:27.735Z,55.22
2023-04-15T00:08:30.071Z,54.22
2023-04-15T00:09:31.517Z,52.40
2023-04-15T00:10:32.965Z,53.15
2023-04-15T00:11:34.728Z,46.95
2023-04-15T00:12:36.462Z,53.63
2023-04-15T00:13:38.482Z,52.60
2023-04-15T00:15:41.443Z,47.78
2023-04-15T00:16:42.964Z,49.63
2023-04-15T00:17:44.496Z,49.47
2023-04-15T00:18:46.305Z,50.78
2023-04-15T00:19:48.282Z,50.63
2023-04-15T00:20:49.717Z,52.72
2023-04-15T00:21:51.402Z,61.05
2023-04-15T00:22:53.544Z,62.08
2023-04-15T00:23:55.146Z,63.53
2023-04-15T00:24:56.598Z,69.63
2023-04-15T00:25:58.039Z,67.03
2023-04-15T00:26:59.993Z,70.43
2023-04-15T00:28:01.619Z,68.32
2023-04-15T00:29:03.207Z,75.78
2023-04-15T00:30:05.323Z,68.35
2023-04-15T00:31:06.815Z,64.22
2023-04-15T00:32:09.163Z,58.75
2023-04-15T00:33:10.998Z,58.50
2023-04-15T00:34:12.844Z,60.28
2023-04-15T00:35:14.313Z,56.70
2023-04-15T00:36:15.717Z,56.28
2023-04-15T00:37:17.146Z,58.50
2023-04-15T00:38:18.620Z,58.00
2023-04-15T00:39:20.380Z,57.83
2023-04-15T00:40:24.516Z,59.40
2023-04-15T00:41:25.988Z,66.22
2023-04-15T00:42:27.830Z,65.20
2023-04-15T00:43:29.643Z,64.78
2023-04-15T00:44:31.438Z,65.20
2023-04-15T00:45:33.371Z,62.70
2023-04-15T00:47:42.259Z,57.13
2023-04-15T00:48:44.036Z,56.58
2023-04-15T00:49:45.500Z,61.35
2023-04-15T00:50:46.981Z,69.57
2023-04-15T00:51:48.453Z,70.32
2023-04-15T00:52:49.900Z,65.15
2023-04-15T00:53:51.975Z,71.90
2023-04-15T00:54:53.634Z,66.50
2023-04-15T00:55:55.900Z,67.22
2023-04-15T00:56:57.975Z,66.80
2023-04-15T00:57:59.652Z,60.35
2023-04-15T00:59:02.237Z,68.07
2023-04-15T01:00:08.725Z,72.75
2023-04-15T01:01:11.347Z,64.10
2023-04-15T01:02:13.066Z,72.07
2023-04-15T01:03:15.516Z,66.70
2023-04-15T01:04:17.269Z,67.63
2023-04-15T01:05:19.575Z,68.95
2023-04-15T01:06:21.415Z,69.97
2023-04-15T01:07:22.873Z,63.42
2023-04-15T01:08:28.228Z,59.35
2023-04-15T01:09:29.654Z,58.97
2023-04-15T01:10:31.862Z,61.45
2023-04-15T01:11:36.509Z,59.25
2023-04-15T01:12:39.506Z,61.78
2023-04-15T01:13:41.623Z,65.97
2023-04-15T01:14:43.455Z,64.18
2023-04-15T01:15:45.332Z,61.70
2023-04-15T01:16:46.929Z,57.35
2023-04-15T01:17:48.857Z,63.20
2023-04-15T01:19:52.241Z,61.88
2023-04-15T01:20:54.070Z,59.30
2023-04-15T01:21:56.298Z,59.90
2023-04-15T01:22:57.770Z,68.60
2023-04-15T01:23:59.545Z,67.75
2023-04-15T01:25:10.337Z,64.03
2023-04-15T01:26:12.126Z,68.05
2023-04-15T01:27:13.575Z,68.32
2023-04-15T01:28:15.122Z,69.97
2023-04-15T01:29:16.568Z,79.47
2023-04-15T01:30:18.080Z,80.30
2023-04-15T01:31:19.565Z,81.60
2023-04-15T01:32:21.060Z,81.32
2023-04-15T01:33:22.483Z,70.88
2023-04-15T01:34:23.923Z,68.53
2023-04-15T01:35:25.553Z,75.07
2023-04-15T01:36:26.953Z,71.57
2023-04-15T01:37:28.955Z,75.65
2023-04-15T01:39:32.655Z,75.82
2023-04-15T01:40:35.039Z,78.53
2023-04-15T01:41:36.528Z,91.28
2023-04-15T01:42:38.318Z,83.57
2023-04-15T01:43:39.903Z,81.70
2023-04-15T01:44:41.341Z,76.78
2023-04-15T01:45:42.801Z,83.00
2023-04-15T01:46:44.312Z,78.72
2023-04-15T01:47:45.788Z,74.88
2023-04-15T01:48:47.277Z,79.13
2023-04-15T01:49:48.811Z,82.72
2023-04-15T01:50:50.650Z,76.10
2023-04-15T01:51:52.064Z,69.50
2023-04-15T01:52:53.476Z,71.97
2023-04-15T01:53:56.875Z,66.32
2023-04-15T01:54:58.288Z,71.75
2023-04-15T01:56:00.308Z,78.50
2023-04-15T01:58:04.022Z,71.47
2023-04-15T01:59:06.160Z,78.20
2023-04-15T02:00:08.173Z,85.07
2023-04-15T02:02:12.974Z,76.03
2023-04-15T02:03:14.458Z,86.05
2023-04-15T02:04:18.622Z,97.28
2023-04-15T02:05:22.231Z,90.65
2023-04-15T02:06:24.389Z,81.65
2023-04-15T02:07:26.362Z,84.28
2023-04-15T02:09:30.201Z,76.72
2023-04-15T02:10:31.636Z,67.13
2023-04-15T02:11:33.025Z,81.50
2023-04-15T02:12:34.438Z,80.32
2023-04-15T02:13:36.256Z,89.40
2023-04-15T02:14:37.699Z,95.63
2023-04-15T02:15:39.186Z,96.13
2023-04-15T02:16:41.212Z,90.00
2023-04-15T02:17:45.907Z,85.32
2023-04-15T02:18:47.859Z,79.28
2023-04-15T02:19:49.466Z,86.15
2023-04-15T02:20:52.417Z,89.97
2023-04-15T02:21:53.801Z,84.88
2023-04-15T02:22:55.213Z,86.82
2023-04-15T02:23:57.183Z,81.65
2023-04-15T02:26:00.550Z,87.80
2023-04-15T02:27:02.145Z,85.25
2023-04-15T02:28:03.749Z,81.93
2023-04-15T02:29:05.183Z,87.88
2023-04-15T02:30:07.380Z,86.85
2023-04-15T02:31:09.594Z,84.18
2023-04-15T02:32:11.997Z,101.50
2023-04-15T02:33:13.466Z,81.85
2023-04-15T02:34:15.178Z,85.40
2023-04-15T02:35:19.126Z,94.55
2023-04-15T02:36:21.317Z,85.72
2023-04-15T02:37:23.213Z,92.30
2023-04-15T02:38:24.923Z,96.03
2023-04-15T02:39:26.386Z,87.50
2023-04-15T02:40:27.855Z,95.10
2023-04-15T02:41:30.008Z,102.90
2023-04-15T02:42:31.912Z,102.30
2023-04-15T02:43:33.323Z,96.13
2023-04-15T02:44:36.413Z,96.97
2023-04-15T02:45:37.912Z,90.53
2023-04-15T02:46:41.217Z,94.22
2023-04-15T02:47:43.326Z,88.25
2023-04-15T02:48:44.812Z,91.47
2023-04-15T02:49:46.219Z,97.15
2023-04-15T02:50:48.064Z,107.03
2023-04-15T02:51:49.816Z,103.03
2023-04-15T02:52:52.220Z,102.18
2023-04-15T02:53:53.844Z,90.57
2023-04-15T02:55:00.440Z,86.90
2023-04-15T02:56:01.897Z,84.75
2023-04-15T02:57:06.087Z,88.20
2023-04-15T02:58:07.555Z,85.57
2023-04-15T02:59:08.962Z,89.65
2023-04-15T03:00:11.920Z,92.32
2023-04-15T03:01:13.670Z,87.65
2023-04-15T03:02:15.230Z,97.43
2023-04-15T03:03:16.858Z,86.97
2023-04-15T03:04:18.482Z,82.97
2023-04-15T03:05:19.960Z,76.75
2023-04-15T03:06:21.394Z,72.72
2023-04-15T03:07:22.913Z,73.30
2023-04-15T03:08:24.383Z,74.50
2023-04-15T03:09:26.423Z,77.15
2023-04-15T03:11:29.844Z,75.22
2023-04-15T03:12:31.342Z,74.30
2023-04-15T03:13:32.848Z,68.95
2023-04-15T03:14:34.284Z,81.40
2023-04-15T03:15:36.193Z,83.35
2023-04-15T03:16:37.629Z,78.10
2023-04-15T03:17:39.250Z,75.03
2023-04-15T03:18:40.732Z,79.57
2023-04-15T03:19:42.141Z,76.63
2023-04-15T03:20:43.584Z,78.43
2023-04-15T03:21:45.062Z,74.97
2023-04-15T03:22:46.434Z,84.45
2023-04-15T03:23:48.731Z,79.20
2023-04-15T03:24:50.458Z,72.30
2023-04-15T03:25:51.921Z,75.15
2023-04-15T03:26:53.352Z,69.57
2023-04-15T03:27:54.751Z,69.22
2023-04-15T03:28:56.683Z,62.88
2023-04-15T03:29:58.062Z,66.35
2023-04-15T03:30:59.987Z,66.32
2023-04-15T03:32:01.722Z,68.65
2023-04-15T03:33:03.238Z,76.43
2023-04-15T03:34:04.676Z,78.95
2023-04-15T03:35:06.464Z,68.95
2023-04-15T03:36:07.913Z,64.60
2023-04-15T03:37:09.346Z,70.82
2023-04-15T03:38:10.756Z,66.25
2023-04-15T03:39:12.296Z,64.10
2023-04-15T03:40:13.760Z,69.47
2023-04-15T03:41:15.181Z,68.20
2023-04-15T03:42:16.612Z,70.30
2023-04-15T03:43:18.016Z,65.70
2023-04-15T03:44:19.456Z,62.53
2023-04-15T03:45:21.118Z,64.47
2023-04-15T03:46:22.668Z,70.72
2023-04-15T03:47:24.187Z,68.18
2023-04-15T03:48:25.760Z,62.17
2023-04-15T03:49:27.180Z,61.60
2023-04-15T03:50:28.671Z,59.85
2023-04-15T03:51:30.204Z,57.65
2023-04-15T03:52:31.689Z,59.05
2023-04-15T03:53:33.084Z,68.85
2023-04-15T03:54:34.475Z,65.53
2023-04-15T03:55:35.858Z,65.47
2023-04-15T03:56:37.300Z,69.20
2023-04-15T03:57:39.591Z,66.88
2023-04-15T03:58:41.383Z,70.88
2023-04-15T03:59:42.840Z,73.03
2023-04-15T04:00:44.238Z,68.78
2023-04-15T04:01:45.823Z,66.55
2023-04-15T04:02:47.398Z,65.78
2023-04-15T04:03:49.006Z,65.88
2023-04-15T04:04:50.816Z,69.82
2023-04-15T04:05:52.431Z,66.28
2023-04-15T04:06:53.858Z,67.70
2023-04-15T04:07:55.270Z,67.40
2023-04-15T04:08:56.679Z,71.78
2023-04-15T04:09:58.276Z,68.85
2023-04-15T04:10:59.677Z,74.80
2023-04-15T04:12:01.250Z,73.20
2023-04-15T04:13:02.653Z,74.47
2023-04-15T04:14:04.053Z,70.53
2023-04-15T04:15:06.766Z,75.65
2023-04-15T04:16:08.370Z,78.72
2023-04-15T04:17:10.580Z,67.78
2023-04-15T04:18:12.433Z,73.00
2023-04-15T04:19:14.922Z,74.07
2023-04-15T04:20:16.611Z,72.45
2023-04-15T04:21:18.202Z,70.68
2023-04-15T04:22:23.991Z,65.28
2023-04-15T04:23:25.723Z,64.53
2023-04-15T04:24:27.140Z,65.82
2023-04-15T04:25:28.543Z,68.93
2023-04-15T04:26:29.957Z,71.63
2023-04-15T04:27:31.377Z,66.35
2023-04-15T04:28:32.932Z,66.43
2023-04-15T04:29:35.457Z,64.05
2023-04-15T04:30:37.013Z,61.40
2023-04-15T04:31:38.715Z,62.38
2023-04-15T04:32:40.252Z,54.97
2023-04-15T04:33:41.766Z,60.20
2023-04-15T04:34:43.203Z,54.08
2023-04-15T04:35:44.742Z,53.58
2023-04-15T04:36:46.484Z,54.72
2023-04-15T04:37:47.965Z,54.58
2023-04-15T04:38:49.395Z,56.03
2023-04-15T04:39:51.081Z,51.70
2023-04-15T04:40:52.499Z,55.08
2023-04-15T04:41:53.948Z,52.10
2023-04-15T04:42:55.433Z,56.58
2023-04-15T04:43:56.858Z,55.63
2023-04-15T04:44:58.264Z,53.78
2023-04-15T04:45:59.744Z,56.38
2023-04-15T04:47:01.223Z,61.15
2023-04-15T04:48:02.767Z,59.25
2023-04-15T04:49:04.475Z,51.63
2023-04-15T04:50:06.804Z,51.55
2023-04-15T04:51:09.361Z,53.58
2023-04-15T04:52:10.958Z,59.25
2023-04-15T04:53:12.887Z,56.53
2023-04-15T04:54:14.391Z,58.05
2023-04-15T04:55:15.915Z,59.13
2023-04-15T04:56:17.314Z,55.95
2023-04-15T04:57:18.766Z,56.65
2023-04-15T04:58:20.569Z,58.88
2023-04-15T04:59:22.014Z,49.50
2023-04-15T05:00:23.457Z,51.92
2023-04-15T05:01:26.605Z,48.50
2023-04-15T05:02:28.322Z,47.00
2023-04-15T05:03:30.027Z,53.78
2023-04-15T05:04:31.987Z,54.05
2023-04-15T05:05:34.125Z,53.47
2023-04-15T05:06:36.758Z,49.85
2023-04-15T05:07:39.452Z,49.78
2023-04-15T05:08:41.297Z,55.72
2023-04-15T05:09:42.813Z,49.75
2023-04-15T05:10:44.288Z,48.67
2023-04-15T05:11:45.693Z,50.30
2023-04-15T05:12:47.119Z,43.67
2023-04-15T05:13:48.568Z,43.88
2023-04-15T05:14:49.980Z,44.63
2023-04-15T05:15:51.588Z,45.60
2023-04-15T05:16:53.071Z,47.10
2023-04-15T05:17:54.575Z,51.10
2023-04-15T05:18:56.077Z,47.22
2023-04-15T05:19:57.513Z,46.10
2023-04-15T05:20:59.517Z,48.50
2023-04-15T05:23:02.555Z,48.33
2023-04-15T05:24:04.339Z,44.53
2023-04-15T05:25:06.001Z,41.50
2023-04-15T05:26:07.827Z,44.25
2023-04-15T05:27:11.486Z,42.45
2023-04-15T05:28:12.913Z,44.53
2023-04-15T05:29:14.380Z,45.83
2023-04-15T05:30:15.988Z,45.22
2023-04-15T05:31:17.511Z,49.83
2023-04-15T05:32:19.027Z,44.30
2023-04-15T05:33:20.536Z,43.45
2023-04-15T05:34:22.354Z,47.45
2023-04-15T05:35:23.834Z,42.05
2023-04-15T05:36:25.936Z,43.67
2023-04-15T05:37:27.374Z,42.92
2023-04-15T05:38:28.831Z,45.50
2023-04-15T05:39:31.444Z,46.60
2023-04-15T05:40:32.900Z,48.13
2023-04-15T05:41:34.570Z,45.28
2023-04-15T05:42:36.442Z,42.45
2023-04-15T05:43:37.860Z,41.95
2023-04-15T05:44:39.295Z,51.53
2023-04-15T05:45:40.679Z,42.80
2023-04-15T05:46:42.472Z,40.25
2023-04-15T05:47:43.983Z,39.58
2023-04-15T05:48:45.585Z,42.45
2023-04-15T05:49:47.059Z,37.65
2023-04-15T05:50:48.530Z,36.38
2023-04-15T05:51:50.036Z,35.67
2023-04-15T05:52:51.520Z,35.55
2023-04-15T05:53:53.090Z,36.55
2023-04-15T05:54:54.549Z,31.48
2023-04-15T05:55:55.965Z,33.70
2023-04-15T05:56:58.272Z,30.23
2023-04-15T05:57:59.857Z,34.13
2023-04-15T05:59:01.766Z,29.50
2023-04-15T06:01:07.170Z,30.00
2023-04-15T06:03:11.814Z,28.00
2023-04-15T06:04:13.452Z,34.00
2023-04-15T06:05:15.104Z,32.65
2023-04-15T06:06:16.568Z,34.85
2023-04-15T06:07:17.982Z,31.42
2023-04-15T06:08:19.479Z,28.55
2023-04-15T06:09:20.922Z,29.38
2023-04-15T06:10:22.376Z,31.33
2023-04-15T06:11:24.559Z,29.95
2023-04-15T06:12:25.999Z,31.92
2023-04-15T06:13:27.553Z,32.97
2023-04-15T06:14:29.008Z,30.42
2023-04-15T06:15:30.628Z,32.78
2023-04-15T06:16:32.286Z,30.77
2023-04-15T06:17:33.781Z,28.42
2023-04-15T06:18:35.201Z,30.45
2023-04-15T06:19:36.712Z,31.92
2023-04-15T06:20:38.553Z,28.52
2023-04-15T06:21:40.474Z,27.63
2023-04-15T06:22:41.880Z,26.80
2023-04-15T06:23:43.428Z,28.52
2023-04-15T06:24:44.871Z,28.65
2023-04-15T06:25:46.603Z,25.92
2023-04-15T06:26:48.016Z,29.02
2023-04-15T06:27:49.653Z,25.58
2023-04-15T06:28:51.286Z,26.33
2023-04-15T06:29:52.818Z,25.92
2023-04-15T06:30:55.563Z,26.63
2023-04-15T06:31:57.703Z,30.17
2023-04-15T06:32:59.829Z,26.88
2023-04-15T06:34:01.289Z,27.17
2023-04-15T06:35:02.793Z,28.27
2023-04-15T06:36:04.285Z,26.30
2023-04-15T06:37:06.411Z,27.30
2023-04-15T06:38:07.913Z,23.33
2023-04-15T06:39:09.295Z,26.65
2023-04-15T06:40:11.040Z,26.27
2023-04-15T06:41:12.748Z,23.38
2023-04-15T06:42:14.246Z,23.38
2023-04-15T06:43:15.670Z,22.30
2023-04-15T06:44:17.113Z,24.27
2023-04-15T06:45:18.516Z,24.35
2023-04-15T06:46:20.235Z,23.60
2023-04-15T06:47:21.812Z,24.20
2023-04-15T06:48:24.879Z,22.58
2023-04-15T06:49:26.672Z,22.65
2023-04-15T06:50:28.169Z,21.02
2023-04-15T06:51:30.260Z,22.85
2023-04-15T06:52:31.746Z,22.95
2023-04-15T06:53:33.287Z,20.48
2023-04-15T06:54:34.709Z,22.08
2023-04-15T06:55:36.443Z,24.38
2023-04-15T06:56:37.860Z,23.85
2023-04-15T06:57:39.283Z,22.10
2023-04-15T06:58:40.806Z,23.15
2023-04-15T06:59:43.322Z,19.75
2023-04-15T07:00:44.893Z,26.52
2023-04-15T07:01:46.484Z,21.25
2023-04-15T07:02:48.166Z,23.08
2023-04-15T07:03:49.744Z,21.40
2023-04-15T07:04:51.154Z,22.67
2023-04-15T07:05:52.689Z,20.40
2023-04-15T07:06:55.543Z,19.98
2023-04-15T07:07:57.324Z,32.58
2023-04-15T07:08:59.027Z,26.92
2023-04-15T07:10:02.098Z,36.05
2023-04-15T07:11:03.586Z,24.60
2023-04-15T07:12:05.145Z,22.35
2023-04-15T07:13:08.699Z,30.73
2023-04-15T07:14:10.138Z,30.23
2023-04-15T07:15:12.062Z,30.23
2023-04-15T07:17:15.317Z,24.98
2023-04-15T07:18:16.783Z,21.75
2023-04-15T07:19:18.191Z,22.85
2023-04-15T07:20:19.724Z,21.13
2023-04-15T07:21:21.196Z,19.38
2023-04-15T07:22:22.668Z,20.80
2023-04-15T07:23:24.208Z,26.30
2023-04-15T07:24:26.786Z,19.33
2023-04-15T07:25:28.198Z,19.60
2023-04-15T07:26:29.719Z,19.55
2023-04-15T07:27:31.140Z,20.13
2023-04-15T07:28:32.586Z,20.52
2023-04-15T07:29:34.033Z,20.25
2023-04-15T07:30:35.612Z,27.63
2023-04-15T07:31:37.218Z,24.27
2023-04-15T07:32:38.860Z,19.45
2023-04-15T07:33:40.359Z,25.27
2023-04-15T07:34:42.158Z,25.10
2023-04-15T07:35:43.635Z,22.88
2023-04-15T07:36:46.050Z,20.85
2023-04-15T07:37:48.503Z,23.58
2023-04-15T07:38:49.902Z,24.95
2023-04-15T07:39:51.340Z,25.27
2023-04-15T07:40:52.844Z,28.20
2023-04-15T07:41:54.295Z,31.60
2023-04-15T07:42:58.603Z,24.58
2023-04-15T07:44:00.422Z,27.38
2023-04-15T07:45:01.897Z,24.73
2023-04-15T07:46:03.623Z,25.05
2023-04-15T07:47:05.353Z,24.25
2023-04-15T07:48:06.908Z,22.98
2023-04-15T07:49:08.610Z,23.02
2023-04-15T07:50:13.319Z,23.30
2023-04-15T07:51:14.764Z,21.40
2023-04-15T07:52:16.628Z,27.40
2023-04-15T07:53:18.191Z,23.45
2023-04-15T07:54:19.654Z,24.67
2023-04-15T07:55:23.282Z,23.80
2023-04-15T07:56:24.817Z,25.00
2023-04-15T07:57:26.247Z,28.48
2023-04-15T07:58:27.695Z,23.77
2023-04-15T07:59:31.015Z,24.85
2023-04-15T08:00:32.455Z,24.35
2023-04-15T08:01:33.981Z,23.55
2023-04-15T08:02:36.903Z,24.00
2023-04-15T08:03:39.987Z,24.10
2023-04-15T08:04:41.647Z,26.98
2023-04-15T08:05:43.352Z,26.60
2023-04-15T08:06:44.820Z,24.08
2023-04-15T08:07:46.796Z,24.95
2023-04-15T08:09:49.694Z,33.83
2023-04-15T08:10:52.849Z,29.45
2023-04-15T08:11:54.565Z,24.65
2023-04-15T08:12:56.443Z,25.33
2023-04-15T08:13:57.937Z,25.67
2023-04-15T08:14:59.421Z,23.33
2023-04-15T08:16:24.497Z,29.85
2023-04-15T08:17:26.188Z,28.35
2023-04-15T08:18:27.613Z,36.40
2023-04-15T08:19:29.170Z,28.30
2023-04-15T08:20:30.604Z,27.42
2023-04-15T08:21:32.241Z,26.13
2023-04-15T08:22:34.374Z,23.85
2023-04-15T08:23:35.990Z,24.58
2023-04-15T08:24:38.559Z,23.38
2023-04-15T08:25:41.106Z,24.15
2023-04-15T08:26:42.681Z,26.70
2023-04-15T08:27:44.137Z,24.45
2023-04-15T08:28:46.852Z,26.38
2023-04-15T08:29:48.274Z,24.20
2023-04-15T08:30:49.774Z,25.27
2023-04-15T08:31:51.681Z,25.08
2023-04-15T08:33:56.790Z,26.80
2023-04-15T08:34:58.231Z,25.10
2023-04-15T08:35:59.671Z,25.30
2023-04-15T08:37:01.234Z,25.27
2023-04-15T08:38:02.680Z,23.35
2023-04-15T08:39:04.960Z,26.17
2023-04-15T08:40:08.434Z,38.50
2023-04-15T08:41:21.339Z,26.52
2023-04-15T08:42:35.301Z,37.03
2023-04-15T08:44:40.625Z,30.67
2023-04-15T08:45:43.643Z,26.63
2023-04-15T08:46:45.080Z,23.73
2023-04-15T08:47:52.767Z,23.98
2023-04-15T08:48:57.734Z,24.23
2023-04-15T08:49:59.707Z,33.42
2023-04-15T08:52:04.360Z,28.90
2023-04-15T08:53:06.315Z,22.67
2023-04-15T08:55:13.686Z,26.63
2023-04-15T08:56:18.651Z,30.88
2023-04-15T08:57:20.329Z,24.73
2023-04-15T08:58:22.185Z,22.20
2023-04-15T08:59:24.124Z,25.58
2023-04-15T09:01:27.667Z,21.58
2023-04-15T09:02:29.827Z,23.58
2023-04-15T09:03:32.053Z,25.27
2023-04-15T09:04:33.744Z,24.95
2023-04-15T09:05:38.642Z,23.67
2023-04-15T09:06:41.353Z,24.23
2023-04-15T09:07:42.849Z,24.08
2023-04-15T09:08:44.868Z,25.00
2023-04-15T09:09:46.497Z,25.70
2023-04-15T09:10:47.936Z,25.63
2023-04-15T09:11:51.353Z,23.20
2023-04-15T09:12:53.033Z,24.17
2023-04-15T09:13:54.404Z,22.55
2023-04-15T09:14:57.569Z,21.30
2023-04-15T09:16:01.414Z,22.60
2023-04-15T09:17:04.827Z,22.42
2023-04-15T09:18:06.972Z,20.25
2023-04-15T09:20:23.722Z,22.45
2023-04-15T09:21:25.184Z,24.52
2023-04-15T09:22:32.883Z,24.13
2023-04-15T09:23:35.524Z,24.95
2023-04-15T09:24:39.750Z,22.92
2023-04-15T09:25:42.600Z,23.23
2023-04-15T09:26:44.066Z,23.98
2023-04-15T09:27:49.805Z,23.05
2023-04-15T09:28:51.262Z,22.63
2023-04-15T09:29:54.080Z,20.65
2023-04-15T09:30:59.755Z,24.13
2023-04-15T09:32:14.506Z,22.00
2023-04-15T09:33:16.231Z,25.05
2023-04-15T09:34:17.930Z,23.20
2023-04-15T09:35:21.493Z,22.70
2023-04-15T09:36:23.045Z,23.27
2023-04-15T09:37:36.918Z,23.00
2023-04-15T09:38:56.058Z,21.70
2023-04-15T09:39:57.512Z,24.63
2023-04-15T09:40:59.328Z,25.48
2023-04-15T09:42:07.557Z,23.58
2023-04-15T09:43:12.791Z,22.48
2023-04-15T09:44:24.402Z,25.02
2023-04-15T09:45:29.302Z,23.25
2023-04-15T09:46:44.524Z,23.38
2023-04-15T09:47:46.287Z,24.80
2023-04-15T09:49:07.760Z,26.70
2023-04-15T09:50:09.589Z,26.08
2023-04-15T09:51:11.012Z,26.38
2023-04-15T09:52:14.002Z,23.80
2023-04-15T09:53:20.490Z,25.45
2023-04-15T09:54:21.993Z,25.08
2023-04-15T09:55:23.692Z,24.88
2023-04-15T09:56:34.704Z,23.77
2023-04-15T09:57:37.367Z,25.67
2023-04-15T09:58:38.965Z,26.13
2023-04-15T09:59:41.999Z,25.73
2023-04-15T10:00:43.900Z,26.92
2023-04-15T10:01:45.730Z,24.73
2023-04-15T10:03:50.809Z,24.05
2023-04-15T10:04:53.700Z,22.98
2023-04-15T10:05:57.302Z,23.02
2023-04-15T10:07:00.409Z,22.73
2023-04-15T10:08:02.437Z,25.65
2023-04-15T10:09:04.287Z,22.83
2023-04-15T10:10:06.640Z,29.13
2023-04-15T10:11:08.582Z,23.77
2023-04-15T10:13:14.666Z,24.42
2023-04-15T10:14:17.503Z,22.30
2023-04-15T10:15:19.219Z,21.20
2023-04-15T10:16:21.749Z,23.55
2023-04-15T10:17:25.827Z,21.92
2023-04-15T10:18:28.631Z,23.77
2023-04-15T10:19:33.234Z,24.10
2023-04-15T10:20:36.817Z,24.13
2023-04-15T10:21:39.036Z,23.02
2023-04-15T10:22:42.174Z,21.13
2023-04-15T10:23:45.133Z,21.83
2023-04-15T10:24:47.187Z,22.17
2023-04-15T10:25:54.425Z,28.92
2023-04-15T10:26:57.203Z,24.55
2023-04-15T10:27:59.263Z,20.95
2023-04-15T10:29:01.269Z,24.35
2023-04-15T10:31:07.250Z,22.80
2023-04-15T10:32:10.272Z,25.00
2023-04-15T10:33:12.657Z,24.52
2023-04-15T10:34:15.936Z,22.08
2023-04-15T10:35:18.640Z,22.15
2023-04-15T10:36:20.962Z,25.95
2023-04-15T10:37:33.370Z,26.17
2023-04-15T10:38:45.591Z,22.30
2023-04-15T10:39:47.854Z,22.13
2023-04-15T10:40:50.518Z,21.30
2023-04-15T10:42:15.317Z,22.27
2023-04-15T10:43:27.076Z,23.20
2023-04-15T10:44:28.543Z,22.10
2023-04-15T10:45:35.384Z,22.20
2023-04-15T10:46:44.192Z,24.38
2023-04-15T10:47:45.894Z,21.25
2023-04-15T10:48:49.509Z,24.27
2023-04-15T10:50:02.327Z,22.38
2023-04-15T10:51:05.104Z,24.27
2023-04-15T10:52:08.308Z,21.90
2023-04-15T10:53:10.700Z,20.77
2023-04-15T10:54:16.917Z,25.23
2023-04-15T10:55:23.860Z,21.10
2023-04-15T10:56:25.692Z,26.23
2023-04-15T10:57:36.009Z,23.08
2023-04-15T10:58:44.045Z,21.02
2023-04-15T11:01:02.753Z,20.25
2023-04-15T11:02:07.962Z,21.55
2023-04-15T11:03:10.604Z,21.73
2023-04-15T11:04:12.273Z,21.88
2023-04-15T11:05:15.553Z,23.08
2023-04-15T11:06:17.158Z,22.75
2023-04-15T11:07:37.281Z,22.25
2023-04-15T11:08:56.124Z,20.60
2023-04-15T11:09:57.580Z,21.23
2023-04-15T11:10:59.101Z,24.00
2023-04-15T11:12:08.696Z,22.92
2023-04-15T11:13:10.121Z,20.15
2023-04-15T11:14:16.209Z,22.98
2023-04-15T11:15:40.539Z,24.60
2023-04-15T11:16:45.189Z,20.15
2023-04-15T11:17:46.836Z,20.73
2023-04-15T11:18:56.100Z,21.63
2023-04-15T11:19:58.344Z,25.42
2023-04-15T11:21:05.237Z,20.80
2023-04-15T11:22:10.752Z,19.05
2023-04-15T11:23:15.022Z,21.83
2023-04-15T11:24:27.129Z,22.00
2023-04-15T11:25:30.877Z,21.15
2023-04-15T11:26:32.739Z,21.52
2023-04-15T11:27:34.193Z,21.77
2023-04-15T11:28:38.271Z,19.60
2023-04-15T11:29:40.734Z,21.38
2023-04-15T11:30:42.715Z,22.80
2023-04-15T11:32:55.171Z,20.10
2023-04-15T11:34:00.060Z,22.50
2023-04-15T11:35:01.572Z,20.67
2023-04-15T11:36:04.280Z,20.55
2023-04-15T11:37:06.631Z,20.23
2023-04-15T11:38:16.697Z,21.65
2023-04-15T11:39:18.216Z,20.15
2023-04-15T11:40:24.456Z,21.52
2023-04-15T11:41:26.123Z,20.73
2023-04-15T11:42:36.234Z,21.27
2023-04-15T11:43:44.813Z,22.77
2023-04-15T11:44:46.238Z,20.15
2023-04-15T11:45:51.787Z,20.70
2023-04-15T11:46:55.755Z,19.40
2023-04-15T11:48:08.114Z,19.33
2023-04-15T11:49:09.511Z,20.52
2023-04-15T11:50:22.405Z,18.88
2023-04-15T11:51:23.907Z,23.25
2023-04-15T11:52:25.956Z,19.95
2023-04-15T11:53:50.804Z,21.48
2023-04-15T11:54:52.454Z,22.33
2023-04-15T11:55:54.037Z,19.33
2023-04-15T11:56:56.541Z,21.08
2023-04-15T11:58:25.259Z,20.98
2023-04-15T11:59:35.661Z,19.73
2023-04-15T12:00:49.766Z,20.02
2023-04-15T12:01:52.373Z,22.00
2023-04-15T12:03:15.222Z,23.70
2023-04-15T12:04:25.141Z,19.98
2023-04-15T12:05:27.100Z,19.95
2023-04-15T12:06:35.033Z,20.85
2023-04-15T12:09:03.692Z,20.83
2023-04-15T12:10:05.357Z,22.23
2023-04-15T12:11:06.793Z,19.92
2023-04-15T12:12:08.355Z,23.35
2023-04-15T12:13:09.864Z,20.45
2023-04-15T12:14:13.809Z,20.15
2023-04-15T12:15:15.632Z,18.10
2023-04-15T12:16:18.767Z,18.00
2023-04-15T12:17:20.290Z,17.98
2023-04-15T12:18:21.721Z,19.15
2023-04-15T12:19:25.936Z,20.25
2023-04-15T12:20:27.428Z,21.92
2023-04-15T12:21:35.415Z,24.65
2023-04-15T12:23:47.910Z,20.30
2023-04-15T12:24:57.138Z,21.75
2023-04-15T12:25:58.643Z,20.25
2023-04-15T12:27:12.099Z,22.20
2023-04-15T12:28:13.523Z,22.33
2023-04-15T12:29:17.353Z,19.95
2023-04-15T12:30:18.850Z,20.23
2023-04-15T12:31:20.340Z,19.13
2023-04-15T12:32:23.612Z,18.05
2023-04-15T12:33:33.237Z,19.80
2023-04-15T12:34:42.466Z,18.08
2023-04-15T12:35:43.902Z,26.63
2023-04-15T12:36:45.396Z,22.20
2023-04-15T12:37:46.833Z,20.25
2023-04-15T12:38:48.230Z,17.95
2023-04-15T12:39:50.482Z,16.23
2023-04-15T12:40:51.968Z,19.30
2023-04-15T12:41:53.479Z,17.10
2023-04-15T12:42:56.470Z,16.23
2023-04-15T12:43:58.083Z,17.85
2023-04-15T12:44:59.508Z,15.43
2023-04-15T12:46:00.998Z,18.40
2023-04-15T12:47:03.104Z,17.80
2023-04-15T12:48:04.907Z,15.95
2023-04-15T12:49:06.342Z,17.70
2023-04-15T12:50:08.312Z,18.95
2023-04-15T12:52:11.253Z,17.92
2023-04-15T12:53:12.982Z,19.55
2023-04-15T12:54:14.440Z,18.10
2023-04-15T12:55:16.727Z,17.80
2023-04-15T12:56:18.166Z,17.30
2023-04-15T12:57:19.578Z,19.52
2023-04-15T12:58:22.044Z,17.92
2023-04-15T12:59:24.067Z,16.70
2023-04-15T13:00:25.666Z,13.27
2023-04-15T13:01:27.279Z,16.50
2023-04-15T13:02:29.422Z,17.25
2023-04-15T13:03:31.265Z,15.10
2023-04-15T13:04:33.043Z,19.13
2023-04-15T13:05:36.905Z,18.13
2023-04-15T13:06:38.520Z,15.38
2023-04-15T13:07:40.382Z,17.83
2023-04-15T13:08:47.982Z,17.25
2023-04-15T13:09:56.869Z,16.25
2023-04-15T13:10:58.551Z,15.95
2023-04-15T13:12:00.948Z,15.00
2023-04-15T13:13:03.164Z,14.68
2023-04-15T13:14:06.572Z,16.90
2023-04-15T13:15:11.331Z,14.10
2023-04-15T13:16:12.807Z,12.95
2023-04-15T13:17:14.339Z,15.50
2023-04-15T13:18:16.066Z,15.57
2023-04-15T13:19:17.478Z,16.98
2023-04-15T13:20:18.966Z,15.55
2023-04-15T13:21:20.652Z,17.30
2023-04-15T13:22:22.131Z,15.18
2023-04-15T13:23:23.564Z,21.45
2023-04-15T13:24:25.598Z,19.00
2023-04-15T13:25:27.783Z,22.15
2023-04-15T13:26:29.330Z,15.73
2023-04-15T13:27:31.486Z,17.77
2023-04-15T13:28:32.949Z,18.25
2023-04-15T13:29:34.380Z,16.88
2023-04-15T13:30:38.381Z,18.42
2023-04-15T13:31:39.856Z,18.10
2023-04-15T13:32:41.452Z,15.38
2023-04-15T13:33:42.933Z,16.40
2023-04-15T13:34:44.306Z,18.55
2023-04-15T13:35:45.727Z,15.63
2023-04-15T13:36:47.455Z,17.40
2023-04-15T13:37:48.958Z,16.42
2023-04-15T13:38:51.570Z,18.33
2023-04-15T13:39:53.391Z,16.90
2023-04-15T13:40:54.801Z,17.45
2023-04-15T13:41:56.191Z,14.30
2023-04-15T13:42:57.682Z,17.63
2023-04-15T13:43:59.073Z,15.80
2023-04-15T13:45:00.624Z,13.85
2023-04-15T13:46:02.517Z,15.35
2023-04-15T13:48:05.882Z,15.25
2023-04-15T13:49:07.430Z,15.38
2023-04-15T13:50:09.399Z,14.70
2023-04-15T13:52:12.648Z,16.08
2023-04-15T13:53:14.088Z,14.35
2023-04-15T13:54:15.502Z,15.32
2023-04-15T13:55:19.235Z,14.40
2023-04-15T13:56:22.652Z,14.32
2023-04-15T13:57:24.219Z,12.43
2023-04-15T13:58:25.754Z,13.55
2023-04-15T13:59:27.319Z,13.48